Flight Track Log - Related Links

Times and Time Zones

All times are in EST time to prevent confusion due to time zone crossing. See the AFL150 flight status page for this flight to view local times or setup timezone preferences in your user account.

Time Position Orientation Groundspeed Altitude Reporting Facility
EST Latitude Longitude Course Direction KTS MPH feet Rate Location/Type
Sun 04:41:00 56.1489 37.0134 314° West  Level FlightAware Approximate
Sun 04:42:00 56.2325 36.8579 314° West  Level FlightAware Approximate
Sun 04:43:00 56.3158 36.7018 314° West  Level FlightAware Approximate
Sun 04:44:00 56.3990 36.5449 314° West  Level FlightAware Approximate
Sun 04:45:00 56.4820 36.3874 314° West  Level FlightAware Approximate
Sun 04:46:00 56.5648 36.2291 314° West  Level FlightAware Approximate
Sun 04:47:00 56.6474 36.0702 313° West  Level FlightAware Approximate
Sun 04:48:00 56.7298 35.9106 313° West  Level FlightAware Approximate
Sun 04:49:00 56.8120 35.7503 313° West  Level FlightAware Approximate
Sun 04:50:00 56.8940 35.5892 313° West  Level FlightAware Approximate
Sun 04:51:00 56.9757 35.4275 313° West  Level FlightAware Approximate
Sun 04:52:00 57.0573 35.2651 313° West  Level FlightAware Approximate
Sun 04:53:00 57.1386 35.1019 313° West  Level FlightAware Approximate
Sun 04:54:00 57.2198 34.9380 312° West  Level FlightAware Approximate
Sun 04:55:00 57.3007 34.7734 312° West  Level FlightAware Approximate
Sun 04:56:00 57.3814 34.6081 312° West  Level FlightAware Approximate
Sun 04:57:00 57.4493 34.4237 309° West  Level Estimated
Sun 04:58:00 57.5256 34.2507 309° West  Level FlightAware Approximate
Sun 04:59:00 57.6017 34.0769 309° West  Level FlightAware Approximate
Sun 05:00:00 57.6775 33.9024 309° West  Level FlightAware Approximate
Sun 05:01:00 57.7531 33.7271 309° West  Level FlightAware Approximate
Sun 05:02:00 57.8284 33.5512 309° West  Level FlightAware Approximate
Sun 05:03:00 57.9035 33.3745 309° West  Level FlightAware Approximate
Sun 05:04:00 57.9784 33.1970 309° West  Level FlightAware Approximate
Sun 05:05:00 58.0529 33.0188 308° West  Level FlightAware Approximate
Sun 05:06:00 58.1273 32.8399 308° West  Level FlightAware Approximate
Sun 05:07:00 58.2014 32.6602 308° West  Level FlightAware Approximate
Sun 05:08:00 58.2752 32.4798 308° West  Level FlightAware Approximate
Sun 05:09:00 58.3488 32.2986 308° West  Level FlightAware Approximate
Sun 05:10:00 58.4221 32.1167 308° West  Level FlightAware Approximate
Sun 05:11:00 58.4952 31.9340 307° West  Level FlightAware Approximate
Sun 05:12:00 58.5680 31.7505 307° West  Level FlightAware Approximate
Sun 05:13:00 58.6405 31.5663 307° West  Level FlightAware Approximate
Sun 05:14:00 58.7128 31.3813 307° West  Level FlightAware Approximate
Sun 05:15:00 58.7848 31.1956 307° West  Level FlightAware Approximate
Sun 05:16:00 58.8566 31.0090 307° West  Level FlightAware Approximate
Sun 05:17:00 58.9281 30.8217 307° West  Level FlightAware Approximate
Sun 05:18:00 58.9993 30.6336 306° West  Level FlightAware Approximate
Sun 05:19:00 59.0702 30.4448 306° West  Level FlightAware Approximate
Sun 05:20:00 59.1409 30.2552 306° West  Level FlightAware Approximate
Sun 05:21:00 59.2112 30.0648 306° West  Level FlightAware Approximate
Sun 05:22:00 59.2813 29.8736 306° West  Level FlightAware Approximate
Sun 05:23:00 59.3512 29.6816 306° West  Level FlightAware Approximate
Sun 05:24:00 59.4207 29.4888 305° West  Level FlightAware Approximate
Sun 05:25:00 59.4899 29.2952 305° West  Level FlightAware Approximate
Sun 05:26:00 59.5589 29.1008 305° West  Level FlightAware Approximate
Sun 05:27:00 59.6276 28.9057 305° West  Level FlightAware Approximate
Sun 05:28:00 59.6867 28.6983 304° West  Level Estimated
Sun 05:29:00 59.7545 28.5012 304° West  Level FlightAware Approximate
Sun 05:30:00 59.8220 28.3033 304° West  Level FlightAware Approximate
Sun 05:31:00 59.8892 28.1046 304° West  Level FlightAware Approximate
Sun 05:32:00 59.9561 27.9051 304° West  Level FlightAware Approximate
Sun 05:33:00 60.0227 27.7048 304° West  Level FlightAware Approximate
Sun 05:34:00 60.0890 27.5037 304° West  Level FlightAware Approximate
Sun 05:35:00 60.1550 27.3017 303° West  Level FlightAware Approximate
Sun 05:36:00 60.2206 27.0990 303° West  Level FlightAware Approximate
Sun 05:37:00 60.2860 26.8954 303° West  Level FlightAware Approximate
Sun 05:38:00 60.3511 26.6910 303° West  Level FlightAware Approximate
Sun 05:39:00 60.4158 26.4859 303° West  Level FlightAware Approximate
Sun 05:40:00 60.4802 26.2799 302° West  Level FlightAware Approximate
Sun 05:41:00 60.5443 26.0730 302° West  Level FlightAware Approximate
Sun 05:42:00 60.6081 25.8654 302° West  Level FlightAware Approximate
Sun 05:43:00 60.6716 25.6569 302° West  Level FlightAware Approximate
Sun 05:44:00 60.7347 25.4477 302° West  Level FlightAware Approximate
Sun 05:45:00 60.7975 25.2376 302° West  Level FlightAware Approximate
Sun 05:46:00 60.8600 25.0266 301° West  Level FlightAware Approximate
Sun 05:47:00 60.9221 24.8149 301° West  Level FlightAware Approximate
Sun 05:48:00 60.9839 24.6023 301° West  Level FlightAware Approximate
Sun 05:49:00 61.0454 24.3889 301° West  Level FlightAware Approximate
Sun 05:50:00 61.1065 24.1747 301° West  Level FlightAware Approximate
Sun 05:51:00 61.1673 23.9597 300° West  Level FlightAware Approximate
Sun 05:52:00 61.2278 23.7438 300° West  Level FlightAware Approximate
Sun 05:53:00 61.2879 23.5271 300° West  Level FlightAware Approximate
Sun 05:54:00 61.3476 23.3095 300° West  Level FlightAware Approximate
Sun 05:55:00 61.4070 23.0912 300° West  Level FlightAware Approximate
Sun 05:56:00 61.4661 22.8720 299° West  Level FlightAware Approximate
Sun 05:57:00 61.5248 22.6519 299° West  Level FlightAware Approximate
Sun 05:58:00 61.5832 22.4311 299° West  Level FlightAware Approximate
Sun 05:59:00 61.6412 22.2094 299° West  Level FlightAware Approximate
Sun 06:00:00 61.6988 21.9869 299° West  Level FlightAware Approximate
Sun 06:01:00 61.7561 21.7635 299° West  Level FlightAware Approximate
Sun 06:02:00 61.8130 21.5393 298° West  Level FlightAware Approximate
Sun 06:03:00 61.8695 21.3143 298° West  Level FlightAware Approximate
Sun 06:04:00 61.9257 21.0885 298° West  Level FlightAware Approximate
Sun 06:05:00 61.9815 20.8618 298° West  Level FlightAware Approximate
Sun 06:06:00 62.0369 20.6343 298° West  Level FlightAware Approximate
Sun 06:06:02 60.7288 21.7776 298° West 452 520 34,000  Level FlightAware ADS-B
Sun 06:08:00 60.8223 21.3325 293° West  Level Estimated
Sun 06:09:00 60.8694 21.1052 293° West  Level Estimated
Sun 06:10:00 60.9160 20.8772 293° West  Level Estimated
Sun 06:11:00 60.9622 20.6485 293° West  Level Estimated
Sun 06:12:00 61.0080 20.4192 292° West  Level Estimated
Sun 06:13:00 61.0535 20.1892 292° West  Level Estimated
Sun 06:14:00 61.0985 19.9586 292° West  Level Estimated
Sun 06:15:00 61.1432 19.7273 292° West  Level Estimated
Sun 06:16:00 61.1875 19.4953 292° West  Level Estimated
Sun 06:17:00 61.2313 19.2628 291° West  Level Estimated
Sun 06:18:00 61.2748 19.0295 291° West  Level Estimated
Sun 06:19:00 61.3179 18.7956 291° West  Level Estimated
Sun 06:20:00 61.3605 18.5611 291° West  Level Estimated
Sun 06:21:00 61.4028 18.3260 291° West  Level Estimated
Sun 06:22:00 61.4447 18.0902 290° West  Level Estimated
Sun 06:23:00 61.4861 17.8537 290° West  Level Estimated
Sun 06:24:00 61.5271 17.6167 290° West  Level Estimated
Sun 06:25:00 61.5678 17.3790 290° West  Level Estimated
Sun 06:26:00 61.6080 17.1407 290° West  Level Estimated
Sun 06:27:00 61.6478 16.9018 289° West  Level Estimated
Sun 06:28:00 61.6871 16.6623 289° West  Level Estimated
Sun 06:29:00 61.7261 16.4221 289° West  Level Estimated
Sun 06:30:00 61.7646 16.1814 289° West  Level Estimated
Sun 06:31:00 61.8027 15.9400 289° West  Level Estimated
Sun 06:32:00 61.8404 15.6981 288° West  Level Estimated
Sun 06:33:00 61.8777 15.4556 288° West  Level Estimated
Sun 06:34:00 61.9145 15.2125 288° West  Level Estimated
Sun 06:35:00 61.9509 14.9688 288° West  Level Estimated
Sun 06:36:00 61.9869 14.7245 288° West  Level Estimated
Sun 06:37:00 62.0224 14.4796 287° West  Level Estimated
Sun 06:38:00 62.0576 14.2342 287° West  Level Estimated
Sun 06:39:00 62.0922 13.9882 287° West  Level Estimated
Sun 06:40:00 62.1265 13.7417 287° West  Level Estimated
Sun 06:41:00 62.1603 13.4946 286° West  Level Estimated
Sun 06:42:00 62.1936 13.2469 286° West  Level Estimated
Sun 06:43:00 62.2265 12.9987 286° West  Level Estimated
Sun 06:44:00 62.2590 12.7500 286° West  Level Estimated
Sun 06:45:00 62.2910 12.5007 286° West  Level Estimated
Sun 06:46:00 62.3226 12.2510 285° West  Level Estimated
Sun 06:47:00 62.3537 12.0007 285° West  Level Estimated
Sun 06:48:00 62.3844 11.7498 285° West  Level Estimated
Sun 06:49:00 62.4146 11.4985 285° West  Level Estimated
Sun 06:50:00 62.4444 11.2466 284° West  Level Estimated
Sun 06:51:00 62.4737 10.9943 284° West  Level Estimated
Sun 06:52:00 62.5025 10.7415 284° West  Level Estimated
Sun 06:53:00 62.5309 10.4881 284° West  Level Estimated
Sun 06:54:00 62.5589 10.2344 284° West  Level Estimated
Sun 06:55:00 62.5863 9.9801 283° West  Level Estimated
Sun 06:56:00 62.6134 9.7253 283° West  Level Estimated
Sun 06:57:00 62.6399 9.4701 283° West  Level Estimated
Sun 06:58:00 62.6660 9.2145 283° West  Level Estimated
Sun 06:59:00 62.6916 8.9584 282° West  Level Estimated
Sun 07:00:00 62.7168 8.7018 282° West  Level Estimated
Sun 07:01:00 62.7415 8.4449 282° West  Level Estimated
Sun 07:02:00 62.7657 8.1875 282° West  Level Estimated
Sun 07:03:00 62.7894 7.9297 281° West  Level Estimated
Sun 07:04:00 62.8127 7.6714 281° West  Level Estimated
Sun 07:05:00 62.8355 7.4128 281° West  Level Estimated
Sun 07:06:00 62.8578 7.1538 281° West  Level Estimated
Sun 07:07:00 62.8797 6.8944 281° West  Level Estimated
Sun 07:08:00 62.9010 6.6346 280° West  Level Estimated
Sun 07:09:00 62.9219 6.3744 280° West  Level Estimated
Sun 07:10:00 62.9423 6.1138 280° West  Level Estimated
Sun 07:11:00 62.9623 5.8529 280° West  Level Estimated
Sun 07:12:00 62.9817 5.5917 279° West  Level Estimated
Sun 07:13:00 63.0007 5.3301 279° West  Level Estimated
Sun 07:14:00 63.0192 5.0682 279° West  Level Estimated
Sun 07:15:00 63.0372 4.8059 279° West  Level Estimated
Sun 07:16:00 63.0547 4.5433 278° West  Level Estimated
Sun 07:17:00 63.0717 4.2804 278° West  Level Estimated
Sun 07:18:00 63.0882 4.0172 278° West  Level Estimated
Sun 07:19:00 63.1043 3.7537 278° West  Level Estimated
Sun 07:20:00 63.1199 3.4900 278° West  Level Estimated
Sun 07:21:00 63.1349 3.2259 277° West  Level Estimated
Sun 07:22:00 63.1495 2.9616 277° West  Level Estimated
Sun 07:23:00 63.1636 2.6970 277° West  Level Estimated
Sun 07:24:00 63.1772 2.4321 277° West  Level Estimated
Sun 07:25:00 63.1903 2.1671 276° West  Level Estimated
Sun 07:26:00 63.2029 1.9017 276° West  Level Estimated
Sun 07:27:00 63.2150 1.6362 276° West  Level Estimated
Sun 07:28:00 63.2266 1.3704 276° West  Level Estimated
Sun 07:29:00 63.2378 1.1045 275° West  Level Estimated
Sun 07:30:00 63.2484 0.8383 275° West  Level Estimated
Sun 07:31:00 63.2585 0.5719 275° West  Level Estimated
Sun 07:32:00 63.2681 0.3054 275° West  Level Estimated
Sun 07:33:00 63.2773 0.0387 274° West  Level Estimated
Sun 07:34:00 63.2859 -0.2282 274° West  Level Estimated
Sun 07:35:00 63.2940 -0.4953 274° West  Level Estimated
Sun 07:36:00 63.3017 -0.7624 274° West  Level Estimated
Sun 07:37:00 63.3088 -1.0298 274° West  Level Estimated
Sun 07:38:00 63.3154 -1.2972 273° West  Level Estimated
Sun 07:39:00 63.3215 -1.5648 273° West  Level Estimated
Sun 07:40:00 63.3272 -1.8325 273° West  Level Estimated
Sun 07:41:00 63.3323 -2.1003 273° West  Level Estimated
Sun 07:42:00 63.3369 -2.3681 272° West  Level Estimated
Sun 07:43:00 63.3410 -2.6361 272° West  Level Estimated
Sun 07:44:00 63.3447 -2.9041 272° West  Level Estimated
Sun 07:45:00 63.3478 -3.1722 272° West  Level Estimated
Sun 07:46:00 63.3504 -3.4403 271° West  Level Estimated
Sun 07:47:00 63.3525 -3.7085 271° West  Level Estimated
Sun 07:48:00 63.3541 -3.9767 271° West  Level Estimated
Sun 07:49:00 63.3552 -4.2450 271° West  Level Estimated
Sun 07:50:00 63.3558 -4.5132 270° West  Level Estimated
Sun 07:51:00 63.3559 -4.7815 270° West  Level Estimated
Sun 07:52:00 63.3555 -5.0497 270° West  Level Estimated
Sun 07:53:00 63.3546 -5.3180 270° West  Level Estimated
Sun 07:54:00 63.3532 -5.5862 269° West  Level Estimated
Sun 07:55:00 63.3513 -5.8544 269° West  Level Estimated
Sun 07:56:00 63.3488 -6.1226 269° West  Level Estimated
Sun 07:57:00 63.3459 -6.3907 269° West  Level Estimated
Sun 07:58:00 63.3425 -6.6588 268° West  Level Estimated
Sun 07:59:00 63.3386 -6.9267 268° West  Level Estimated
Sun 08:00:00 63.3341 -7.1946 268° West  Level Estimated
Sun 08:01:00 63.3292 -7.4624 268° West  Level Estimated
Sun 08:02:00 63.3238 -7.7302 268° West  Level Estimated
Sun 08:03:00 63.3178 -7.9978 267° West  Level Estimated
Sun 08:04:00 63.3114 -8.2653 267° West  Level Estimated
Sun 08:05:00 63.3044 -8.5326 267° West  Level Estimated
Sun 08:06:00 63.2970 -8.7999 267° West  Level Estimated
Sun 08:07:00 63.2891 -9.0670 266° West  Level Estimated
Sun 08:08:00 63.2806 -9.3339 266° West  Level Estimated
Sun 08:09:00 63.2717 -9.6007 266° West  Level Estimated
Sun 08:10:00 63.2622 -9.8673 266° West  Level Estimated
Sun 08:11:00 63.2523 -10.1338 265° West  Level Estimated
Sun 08:12:00 63.2419 -10.4000 265° West  Level Estimated
Sun 08:13:00 63.2309 -10.6661 265° West  Level Estimated
Sun 08:14:00 63.2195 -10.9319 265° West  Level Estimated
Sun 08:15:00 63.2076 -11.1975 264° West  Level Estimated
Sun 08:16:00 63.1952 -11.4629 264° West  Level Estimated
Sun 08:17:00 63.1823 -11.7281 264° West  Level Estimated
Sun 08:18:00 63.1688 -11.9931 264° West  Level Estimated
Sun 08:19:00 63.1549 -12.2577 263° West  Level Estimated
Sun 08:20:00 63.1406 -12.5222 263° West  Level Estimated
Sun 08:21:00 63.1257 -12.7863 263° West  Level Estimated
Sun 08:22:00 63.1103 -13.0502 263° West  Level Estimated
Sun 08:23:00 63.0945 -13.3138 263° West  Level Estimated
Sun 08:24:00 63.0781 -13.5771 262° West  Level Estimated
Sun 08:25:00 63.0613 -13.8401 262° West  Level Estimated
Sun 08:26:00 63.0439 -14.1028 262° West  Level Estimated
Sun 08:27:00 63.0261 -14.3652 262° West  Level Estimated
Sun 08:28:00 63.0078 -14.6273 261° West  Level Estimated
Sun 08:29:00 62.9890 -14.8890 261° West  Level Estimated
Sun 08:30:00 62.9698 -15.1504 261° West  Level Estimated
Sun 08:31:00 62.9500 -15.4114 261° West  Level Estimated
Sun 08:32:00 62.9298 -15.6721 260° West  Level Estimated
Sun 08:33:00 62.9091 -15.9324 260° West  Level Estimated
Sun 08:34:00 62.8879 -16.1924 260° West  Level Estimated
Sun 08:35:00 62.8662 -16.4520 260° West  Level Estimated
Sun 08:36:00 62.8441 -16.7111 260° West  Level Estimated
Sun 08:37:00 62.8215 -16.9699 259° West  Level Estimated
Sun 08:38:00 62.7984 -17.2283 259° West  Level Estimated
Sun 08:39:00 62.7748 -17.4863 259° West  Level Estimated
Sun 08:40:00 62.7508 -17.7438 259° West  Level Estimated
Sun 08:41:00 62.7263 -18.0009 258° West  Level Estimated
Sun 08:42:00 62.7013 -18.2577 258° West  Level Estimated
Sun 08:43:00 62.6759 -18.5139 258° West  Level Estimated
Sun 08:44:00 62.6500 -18.7697 258° West  Level Estimated
Sun 08:45:00 62.6236 -19.0251 257° West  Level Estimated
Sun 08:46:00 62.5967 -19.2800 257° West  Level Estimated
Sun 08:47:00 62.5695 -19.5345 257° West  Level Estimated
Sun 08:48:00 62.5417 -19.7885 257° West  Level Estimated
Sun 08:49:00 62.5135 -20.0420 257° West  Level Estimated
Sun 08:50:00 62.4848 -20.2950 256° West  Level Estimated
Sun 08:51:00 62.4557 -20.5475 256° West  Level Estimated
Sun 08:52:00 62.4261 -20.7995 256° West  Level Estimated
Sun 08:53:00 62.3960 -21.0511 256° West  Level Estimated
Sun 08:54:00 62.3655 -21.3021 255° West  Level Estimated
Sun 08:55:00 62.3346 -21.5526 255° West  Level Estimated
Sun 08:56:00 62.3032 -21.8026 255° West  Level Estimated
Sun 08:57:00 62.2713 -22.0520 255° West  Level Estimated
Sun 08:58:00 62.2390 -22.3010 255° West  Level Estimated
Sun 08:59:00 62.2063 -22.5494 254° West  Level Estimated
Sun 09:00:00 62.1731 -22.7972 254° West  Level Estimated
Sun 09:01:00 62.1395 -23.0445 254° West  Level Estimated
Sun 09:02:00 62.1054 -23.2913 254° West  Level Estimated
Sun 09:03:00 62.0709 -23.5375 253° West  Level Estimated
Sun 09:04:00 62.0360 -23.7831 253° West  Level Estimated
Sun 09:05:00 62.0006 -24.0282 253° West  Level Estimated
Sun 09:06:00 61.9648 -24.2727 253° West  Level Estimated
Sun 09:07:00 61.9286 -24.5166 253° West  Level Estimated
Sun 09:08:00 61.8919 -24.7600 252° West  Level Estimated
Sun 09:09:00 61.8548 -25.0027 252° West  Level Estimated
Sun 09:10:00 61.8173 -25.2449 252° West  Level Estimated
Sun 09:11:00 61.7793 -25.4865 252° West  Level Estimated
Sun 09:12:00 61.7410 -25.7274 252° West  Level Estimated
Sun 09:13:00 61.7022 -25.9678 251° West  Level Estimated
Sun 09:14:00 61.6629 -26.2076 251° West  Level Estimated
Sun 09:15:00 61.6233 -26.4467 251° West  Level Estimated
Sun 09:16:00 61.5833 -26.6852 251° West  Level Estimated
Sun 09:17:00 61.5428 -26.9232 250° West  Level Estimated
Sun 09:18:00 61.5019 -27.1604 250° West  Level Estimated
Sun 09:19:00 61.4606 -27.3971 250° West  Level Estimated
Sun 09:20:00 61.4189 -27.6332 250° West  Level Estimated
Sun 09:21:00 61.3768 -27.8686 250° West  Level Estimated
Sun 09:22:00 61.3343 -28.1033 249° West  Level Estimated
Sun 09:23:00 61.2914 -28.3375 249° West  Level Estimated
Sun 09:24:00 61.2481 -28.5710 249° West  Level Estimated
Sun 09:25:00 61.2044 -28.8038 249° West  Level Estimated
Sun 09:26:00 61.1603 -29.0360 249° West  Level Estimated
Sun 09:27:00 61.1158 -29.2675 248° West  Level Estimated
Sun 09:28:00 61.0709 -29.4984 248° West  Level Estimated
Sun 09:29:00 61.0256 -29.7286 248° West  Level Estimated
Sun 09:30:00 60.9799 -29.9582 248° West  Level Estimated
Sun 09:31:00 60.9338 -30.1871 248° West  Level Estimated
Sun 09:32:00 60.8873 -30.4154 247° West  Level Estimated
Sun 09:33:00 60.8405 -30.6430 247° West  Level Estimated
Sun 09:34:00 60.7932 -30.8699 247° West  Level Estimated
Sun 09:35:00 60.7456 -31.0961 247° West  Level Estimated
Sun 09:36:00 60.6976 -31.3217 247° West  Level Estimated
Sun 09:37:00 60.6492 -31.5466 246° West  Level Estimated
Sun 09:38:00 60.6015 -31.7660 246° West  Level Estimated
Sun 09:39:00 60.5535 -31.9847 246° West  Level Estimated
Sun 09:40:00 60.5051 -32.2029 246° West  Level Estimated
Sun 09:41:00 60.4563 -32.4203 246° West  Level Estimated
Sun 09:42:00 60.4072 -32.6371 245° Southwest  Level Estimated
Sun 09:43:00 60.3577 -32.8533 245° Southwest  Level Estimated
Sun 09:44:00 60.3079 -33.0687 245° Southwest  Level Estimated
Sun 09:45:00 60.2577 -33.2836 245° Southwest  Level Estimated
Sun 09:46:00 60.2072 -33.4977 245° Southwest  Level Estimated
Sun 09:47:00 60.1563 -33.7113 244° Southwest  Level Estimated
Sun 09:48:00 60.1051 -33.9241 244° Southwest  Level Estimated
Sun 09:49:00 60.0536 -34.1363 244° Southwest  Level Estimated
Sun 09:50:00 60.0017 -34.3478 244° Southwest  Level Estimated
Sun 09:51:00 59.9495 -34.5587 244° Southwest  Level Estimated
Sun 09:52:00 59.8969 -34.7689 244° Southwest  Level Estimated
Sun 09:53:00 59.8441 -34.9784 243° Southwest  Level Estimated
Sun 09:54:00 59.7908 -35.1873 243° Southwest  Level Estimated
Sun 09:55:00 59.7373 -35.3955 243° Southwest  Level Estimated
Sun 09:56:00 59.6834 -35.6030 243° Southwest  Level Estimated
Sun 09:57:00 59.6292 -35.8098 243° Southwest  Level Estimated
Sun 09:58:00 59.5747 -36.0160 242° Southwest  Level Estimated
Sun 09:59:00 59.5198 -36.2215 242° Southwest  Level Estimated
Sun 10:00:00 59.4646 -36.4264 242° Southwest  Level Estimated
Sun 10:01:00 59.4091 -36.6306 242° Southwest  Level Estimated
Sun 10:02:00 59.3533 -36.8341 242° Southwest  Level Estimated
Sun 10:03:00 59.2972 -37.0369 242° Southwest  Level Estimated
Sun 10:04:00 59.2408 -37.2391 241° Southwest  Level Estimated
Sun 10:05:00 59.1840 -37.4406 241° Southwest  Level Estimated
Sun 10:06:00 59.1270 -37.6414 241° Southwest  Level Estimated
Sun 10:07:00 59.0696 -37.8416 241° Southwest  Level Estimated
Sun 10:08:00 59.0119 -38.0411 241° Southwest  Level Estimated
Sun 10:09:00 58.9539 -38.2399 241° Southwest  Level Estimated
Sun 10:10:00 58.8956 -38.4380 240° Southwest  Level Estimated
Sun 10:11:00 58.8370 -38.6355 240° Southwest  Level Estimated
Sun 10:12:00 58.7781 -38.8323 240° Southwest  Level Estimated
Sun 10:13:00 58.7190 -39.0285 240° Southwest  Level Estimated
Sun 10:14:00 58.6595 -39.2240 240° Southwest  Level Estimated
Sun 10:15:00 58.5997 -39.4188 240° Southwest  Level Estimated
Sun 10:16:00 58.5396 -39.6129 239° Southwest  Level Estimated
Sun 10:17:00 58.4792 -39.8064 239° Southwest  Level Estimated
Sun 10:18:00 58.4186 -39.9992 239° Southwest  Level Estimated
Sun 10:19:00 58.3576 -40.1914 239° Southwest  Level Estimated
Sun 10:20:00 58.2964 -40.3829 239° Southwest  Level Estimated
Sun 10:21:00 58.2349 -40.5737 239° Southwest  Level Estimated
Sun 10:22:00 58.1731 -40.7638 238° Southwest  Level Estimated
Sun 10:23:00 58.1110 -40.9533 238° Southwest  Level Estimated
Sun 10:24:00 58.0486 -41.1422 238° Southwest  Level Estimated
Sun 10:25:00 57.9860 -41.3304 238° Southwest  Level Estimated
Sun 10:26:00 57.9231 -41.5179 238° Southwest  Level Estimated
Sun 10:27:00 57.8599 -41.7047 238° Southwest  Level Estimated
Sun 10:28:00 57.7964 -41.8909 237° Southwest  Level Estimated
Sun 10:29:00 57.7327 -42.0765 237° Southwest  Level Estimated
Sun 10:30:00 57.6687 -42.2614 237° Southwest  Level Estimated
Sun 10:31:00 57.6044 -42.4456 237° Southwest  Level Estimated
Sun 10:32:00 57.5398 -42.6292 237° Southwest  Level Estimated
Sun 10:33:00 57.4750 -42.8122 237° Southwest  Level Estimated
Sun 10:34:00 57.4099 -42.9945 237° Southwest  Level Estimated
Sun 10:35:00 57.3446 -43.1761 236° Southwest  Level Estimated
Sun 10:36:00 57.2790 -43.3571 236° Southwest  Level Estimated
Sun 10:37:00 57.2131 -43.5375 236° Southwest  Level Estimated
Sun 10:38:00 57.1470 -43.7172 236° Southwest  Level Estimated
Sun 10:39:00 57.0806 -43.8963 236° Southwest  Level Estimated
Sun 10:40:00 57.0140 -44.0747 236° Southwest  Level Estimated
Sun 10:41:00 56.9471 -44.2525 235° Southwest  Level Estimated
Sun 10:42:00 56.8800 -44.4296 235° Southwest  Level Estimated
Sun 10:43:00 56.8126 -44.6061 235° Southwest  Level Estimated
Sun 10:44:00 56.7450 -44.7820 235° Southwest  Level Estimated
Sun 10:45:00 56.6771 -44.9573 235° Southwest  Level Estimated
Sun 10:46:00 56.6090 -45.1319 235° Southwest  Level Estimated
Sun 10:47:00 56.5406 -45.3059 235° Southwest  Level Estimated
Sun 10:48:00 56.4720 -45.4792 234° Southwest  Level Estimated
Sun 10:49:00 56.4032 -45.6519 234° Southwest  Level Estimated
Sun 10:50:00 56.3341 -45.8240 234° Southwest  Level Estimated
Sun 10:51:00 56.2650 -45.9948 234° Southwest  Level Estimated
Sun 10:52:00 56.1957 -46.1652 234° Southwest  Level Estimated
Sun 10:53:00 56.1261 -46.3349 234° Southwest  Level Estimated
Sun 10:54:00 56.0563 -46.5041 234° Southwest  Level Estimated
Sun 10:55:00 55.9862 -46.6726 233° Southwest  Level Estimated
Sun 10:55:23 61.2333 -56.4167 233° Southwest 360 414 37,000  Level Gander Center
Sun 10:56:00 55.9160 -46.8405 233° Southwest  Level Estimated
Sun 10:56:23 61.1500 -56.6333 231° Southwest 440 506 37,000  Level Gander Center
Sun 10:57:00 55.8455 -47.0078 233° Southwest  Level Estimated
Sun 10:57:23 61.0833 -56.8167 233° Southwest 450 518 37,000  Level Gander Center
Sun 10:58:00 55.7747 -47.1745 233° Southwest  Level Estimated
Sun 10:58:23 61.0167 -57.0667 241° Southwest 450 518 37,000  Level Gander Center
Sun 10:59:00 55.7038 -47.3406 233° Southwest  Level Estimated
Sun 10:59:23 60.9333 -57.2833 232° Southwest 450 518 37,000  Level Gander Center
Sun 11:00:00 55.6326 -47.5061 233° Southwest  Level Estimated
Sun 11:00:23 60.8833 -57.5000 245° Southwest 460 529 37,000  Level Gander Center
Sun 11:01:23 60.8000 -57.7000 230° Southwest 450 518 37,000  Level Gander Center
Sun 11:02:23 60.7500 -57.9167 245° Southwest 450 518 37,000  Level Gander Center
Sun 11:03:23 60.6667 -58.1333 232° Southwest 450 518 37,000  Level Gander Center
Sun 11:04:23 60.5833 -58.3000 225° Southwest 450 518 37,000  Level Gander Center
Sun 11:05:23 60.5167 -58.5167 238° Southwest 450 518 37,000  Level Gander Center
Sun 11:06:23 60.4500 -58.7167 236° Southwest 440 506 37,000  Level Gander Center
Sun 11:07:23 60.3833 -58.9333 238° Southwest 440 506 37,000  Level Gander Center
Sun 11:08:23 60.3000 -59.1333 230° Southwest 450 518 37,000  Level Gander Center
Sun 11:09:23 60.2333 -59.3333 236° Southwest 450 518 37,000  Level Gander Center
Sun 11:10:23 60.1500 -59.5500 232° Southwest 450 518 37,000  Level Gander Center
Sun 11:11:17 60.0833 -59.7167 231° Southwest 450 518 37,000  Level Montreal Center
Sun 11:12:17 60.0167 -59.9000 234° Southwest 450 518 37,000  Level Montreal Center
Sun 11:13:17 59.9667 -60.1500 248° West 450 518 37,000  Level Montreal Center
Sun 11:14:17 59.9333 -60.3833 254° West 450 518 37,000  Level Montreal Center
Sun 11:15:17 59.9000 -60.5667 250° West 450 518 37,000  Level Montreal Center
Sun 11:16:17 59.7833 -60.7500 218° Southwest 440 506 37,000  Level Montreal Center
Sun 11:17:17 59.7000 -60.8167 202° Southwest 450 518 37,000  Level Montreal Center
Sun 11:18:17 59.5833 -60.9167 203° Southwest 450 518 37,000  Level Montreal Center
Sun 11:19:23 59.4333 -61.0500 204° Southwest 450 518 37,000  Level Gander Center
Sun 11:20:23 59.3167 -61.1500 204° Southwest 450 518 37,000  Level Gander Center
Sun 11:21:23 59.2000 -61.2500 204° Southwest 450 518 37,000  Level Gander Center
Sun 11:22:23 59.0833 -61.3500 204° Southwest 460 529 37,000  Level Gander Center
Sun 11:23:23 58.9500 -61.4500 201° Southwest 450 518 37,000  Level Gander Center
Sun 11:24:23 58.8333 -61.5000 193° South 450 518 37,000  Level Gander Center
Sun 11:25:23 58.7167 -61.6000 204° Southwest 460 529 37,000  Level Gander Center
Sun 11:26:23 58.6000 -61.7000 204° Southwest 450 518 37,000  Level Gander Center
Sun 11:27:23 58.4833 -61.7667 197° South 460 529 37,000  Level Gander Center
Sun 11:28:23 58.3667 -61.8500 201° Southwest 450 518 37,000  Level Gander Center
Sun 11:29:23 58.2500 -61.9500 204° Southwest 440 506 37,000  Level Gander Center
Sun 11:30:23 58.1333 -62.0333 201° Southwest 460 529 37,000  Level Gander Center
Sun 11:31:23 58.0167 -62.1000 197° South 460 529 37,000  Level Gander Center
Sun 11:32:23 57.9000 -62.2000 204° Southwest 460 529 37,000  Level Gander Center
Sun 11:33:23 57.7833 -62.2833 201° Southwest 460 529 37,000  Level Gander Center
Sun 11:34:23 57.6667 -62.3500 197° South 460 529 37,000  Level Gander Center
Sun 11:35:23 57.5500 -62.4333 201° Southwest 460 529 37,000  Level Gander Center
Sun 11:36:23 57.4167 -62.5167 199° South 460 529 37,000  Level Gander Center
Sun 11:37:23 57.3000 -62.6167 205° Southwest 460 529 37,000  Level Gander Center
Sun 11:38:23 57.1833 -62.7000 201° Southwest 450 518 37,000  Level Gander Center
Sun 11:39:23 57.0667 -62.7500 193° South 450 518 37,000  Level Gander Center
Sun 11:40:23 56.9500 -62.8500 205° Southwest 450 518 37,000  Level Gander Center
Sun 11:41:23 56.8333 -62.9333 201° Southwest 460 529 37,000  Level Gander Center
Sun 11:42:23 56.7000 -62.9833 192° South 440 506 37,000  Level Gander Center
Sun 11:43:23 56.5833 -63.0667 201° Southwest 450 518 37,000  Level Gander Center
Sun 11:44:23 56.4667 -63.1500 202° Southwest 460 529 37,000  Level Gander Center
Sun 11:45:23 56.3500 -63.2167 198° South 450 518 37,000  Level Gander Center
Sun 11:46:23 56.2333 -63.3000 202° Southwest 450 518 37,000  Level Gander Center
Sun 11:47:23 56.1167 -63.3833 202° Southwest 440 506 37,000  Level Gander Center
Sun 11:48:23 56.0167 -63.4333 196° South 440 506 37,000  Level Gander Center
Sun 11:49:23 55.8833 -63.5167 199° South 440 506 37,000  Level Gander Center
Sun 11:50:23 55.7833 -63.6000 205° Southwest 450 518 37,000  Level Gander Center
Sun 11:51:23 55.6500 -63.6500 192° South 450 518 37,000  Level Gander Center
Sun 11:52:23 55.5500 -63.7333 205° Southwest 450 518 37,000  Level Gander Center
Sun 11:53:23 55.4167 -63.8167 200° South 450 518 37,000  Level Gander Center
Sun 11:54:23 55.3000 -63.8667 194° South 440 506 37,000  Level Gander Center
Sun 11:55:23 55.1833 -63.9500 202° Southwest 450 518 37,000  Level Gander Center
Sun 11:56:23 55.0667 -64.0333 202° Southwest 440 506 37,000  Level Gander Center
Sun 11:57:23 54.9500 -64.0833 194° South 440 506 37,000  Level Gander Center
Sun 11:58:23 54.8333 -64.1500 198° South 440 506 37,000  Level Gander Center
Sun 11:59:23 54.7167 -64.2333 202° Southwest 440 506 37,000  Level Gander Center
Sun 12:00:23 54.6000 -64.2833 194° South 440 506 37,000  Level Gander Center
Sun 12:01:23 54.4833 -64.3667 203° Southwest 450 518 37,000  Level Gander Center
Sun 12:02:23 54.3500 -64.4333 196° South 440 506 37,000  Level Gander Center
Sun 12:03:23 54.2500 -64.4833 196° South 440 506 37,000  Level Gander Center
Sun 12:04:23 54.1333 -64.5667 203° Southwest 440 506 37,000  Level Gander Center
Sun 12:05:23 54.0167 -64.6167 194° South 440 506 37,000  Level Gander Center
Sun 12:06:23 53.9167 -64.6833 201° Southwest 430 495 37,000  Level Gander Center
Sun 12:07:23 53.7833 -64.7667 200° South 430 495 37,000  Level Gander Center
Sun 12:08:23 53.6833 -64.8167 196° South 430 495 37,000  Level Gander Center
Sun 12:09:23 53.5667 -64.8833 199° South 430 495 37,000  Level Gander Center
Sun 12:10:23 53.4333 -64.9333 193° South 440 506 37,000  Level Gander Center
Sun 12:11:23 53.3333 -65.0000 202° Southwest 420 483 37,000  Level Gander Center
Sun 12:12:23 53.2167 -65.0500 194° South 420 483 37,000  Level Gander Center
Sun 12:13:23 53.1167 -65.1333 207° Southwest 420 483 37,000  Level Gander Center
Sun 12:14:23 53.0000 -65.2000 199° South 440 506 37,000  Level Gander Center
Sun 12:15:23 52.8833 -65.2500 195° South 430 495 37,000  Level Gander Center
Sun 12:16:23 52.7667 -65.3167 199° South 420 483 37,000  Level Gander Center
Sun 12:17:23 52.6500 -65.3667 195° South 420 483 37,000 -250 Level Gander Center
Sun 12:18:23 52.5500 -65.4333 202° Southwest 420 483 36,500 -500 Descending Gander Center
Sun 12:19:23 52.4333 -65.4833 195° South 420 483 36,000 -250 Descending Gander Center
Sun 12:20:23 52.3333 -65.5500 202° Southwest 420 483 36,000  Level Gander Center
Sun 12:21:23 52.2167 -65.6000 195° South 420 483 36,000  Level Gander Center
Sun 12:22:23 52.1000 -65.6667 199° South 420 483 36,000  Level Gander Center
Sun 12:23:02 52.0333 -65.7000 197° South 410 472 36,000  Level Moncton Center
Sun 12:24:02 51.9167 -65.7500 195° South 410 472 36,000  Level Moncton Center
Sun 12:25:02 51.8167 -65.8000 197° South 410 472 36,000  Level Moncton Center
Sun 12:26:02 51.6833 -65.8500 193° South 410 472 36,000  Level Moncton Center
Sun 12:27:02 51.5833 -65.9000 197° South 410 472 36,000  Level Moncton Center
Sun 12:28:02 51.4833 -65.9500 197° South 400 460 36,000  Level Moncton Center
Sun 12:29:02 51.3833 -66.0000 197° South 400 460 36,000  Level Moncton Center
Sun 12:30:02 51.2667 -66.0833 204° Southwest 400 460 36,000  Level Moncton Center
Sun 12:31:02 51.1667 -66.1333 197° South 390 449 36,000  Level Moncton Center
Sun 12:32:02 51.0667 -66.1833 197° South 390 449 36,000  Level Moncton Center
Sun 12:33:02 50.9667 -66.2333 197° South 390 449 36,000  Level Moncton Center
Sun 12:34:02 50.8667 -66.2833 198° South 390 449 36,000  Level Moncton Center
Sun 12:35:02 50.7667 -66.3333 198° South 390 449 36,000  Level Moncton Center
Sun 12:36:02 50.6500 -66.3833 195° South 390 449 36,000  Level Moncton Center
Sun 12:37:02 50.5500 -66.4333 198° South 390 449 36,000  Level Moncton Center
Sun 12:38:02 50.4500 -66.4667 192° South 390 449 36,000  Level Moncton Center
Sun 12:39:02 50.3500 -66.5167 198° South 390 449 36,000  Level Moncton Center
Sun 12:40:02 50.2333 -66.5667 195° South 390 449 36,000  Level Moncton Center
Sun 12:41:02 50.1333 -66.6167 198° South 370 426 36,000  Level Moncton Center
Sun 12:42:02 50.0167 -66.6667 195° South 390 449 36,000  Level Moncton Center
Sun 12:43:02 49.9333 -66.7167 201° Southwest 390 449 36,000  Level Moncton Center
Sun 12:44:02 49.8167 -66.7667 195° South 380 437 36,000  Level Moncton Center
Sun 12:45:02 49.7167 -66.8000 192° South 380 437 36,000  Level Moncton Center
Sun 12:46:02 49.6167 -66.8500 198° South 370 426 36,000  Level Moncton Center
Sun 12:47:02 49.5333 -66.9000 201° Southwest 370 426 36,000  Level Moncton Center
Sun 12:48:02 49.4333 -66.9500 198° South 370 426 36,000  Level Moncton Center
Sun 12:49:02 49.3333 -67.0000 198° South 370 426 36,000  Level Moncton Center
Sun 12:50:02 49.2333 -67.0333 192° South 370 426 36,000  Level Moncton Center
Sun 12:51:02 49.1333 -67.0833 198° South 370 426 36,000  Level Moncton Center
Sun 12:52:02 49.0167 -67.1333 196° South 370 426 36,000  Level Moncton Center
Sun 12:53:02 48.9167 -67.1667 192° South 370 426 36,000  Level Moncton Center
Sun 12:54:02 48.8167 -67.2167 198° South 370 426 36,000  Level Moncton Center
Sun 12:55:02 48.7333 -67.2667 202° Southwest 370 426 36,000  Level Moncton Center
Sun 12:56:02 48.6333 -67.3167 198° South 370 426 36,000  Level Moncton Center
Sun 12:57:02 48.5333 -67.3333 186° South 370 426 36,000  Level Moncton Center
Sun 12:58:02 48.4333 -67.3833 198° South 370 426 36,000  Level Moncton Center
Sun 12:59:02 48.3333 -67.4167 192° South 360 414 36,000  Level Moncton Center
Sun 13:00:02 48.2333 -67.4667 198° South 360 414 36,000  Level Moncton Center
Sun 13:01:02 48.1500 -67.5167 202° Southwest 360 414 36,000  Level Moncton Center
Sun 13:02:02 48.0333 -67.5500 191° South 360 414 36,000  Level Moncton Center
Sun 13:03:02 47.9333 -67.6000 199° South 360 414 36,000  Level Moncton Center
Sun 13:04:02 47.8500 -67.6333 195° South 360 414 36,000  Level Moncton Center
Sun 13:05:02 47.7500 -67.6833 199° South 360 414 36,000  Level Moncton Center
Sun 13:06:02 47.6500 -67.7333 199° South 360 414 36,000  Level Moncton Center
Sun 13:07:02 47.5667 -67.7667 195° South 360 414 36,000  Level Moncton Center
Sun 13:08:02 47.4667 -67.8167 199° South 360 414 36,000  Level Moncton Center
Sun 13:09:02 47.3667 -67.8500 193° South 360 414 36,000  Level Moncton Center
Sun 13:10:02 47.2667 -67.8833 193° South 360 414 36,000  Level Moncton Center
Sun 13:10:42 47.2217 -67.9117 203° Southwest 363 418 36,000  Level Boston Center
Sun 13:11:43 47.1242 -67.9519 196° South 365 420 36,000  Level Boston Center
Sun 13:12:43 47.0306 -67.9906 196° South 364 419 36,000  Level Boston Center
Sun 13:13:44 46.9314 -68.0297 195° South 367 422 36,000  Level Boston Center
Sun 13:14:44 46.8319 -68.0733 197° South 369 425 36,000  Level Boston Center
Sun 13:15:47 46.7325 -68.1114 195° South 367 422 36,000  Level Boston Center
Sun 13:16:48 46.6353 -68.1531 196° South 364 419 36,000  Level Boston Center
Sun 13:17:49 46.5364 -68.1936 196° South 366 421 36,000  Level Boston Center
Sun 13:18:51 46.4383 -68.2336 196° South 364 419 36,000  Level Boston Center
Sun 13:19:51 46.3397 -68.2753 196° South 366 421 36,000  Level Boston Center
Sun 13:20:53 46.2422 -68.3158 196° South 364 419 36,000  Level Boston Center
Sun 13:21:53 46.1436 -68.3553 195° South 364 419 36,000  Level Boston Center
Sun 13:22:54 46.0461 -68.3961 196° South 362 417 36,000  Level Boston Center
Sun 13:23:54 45.9333 -68.4414 196° South 362 417 36,000  Level Boston Center
Sun 13:29:42 45.6368 -68.5602 196° South 369 425 36,000  Level FlightAware ADS-B
Sun 13:31:22 45.1949 -68.7357 196° South 369 425 36,000  Level FlightAware ADS-B
Sun 13:32:01 45.1107 -68.7689 196° South 371 427 36,000  Level FlightAware ADS-B
Sun 13:32:41 45.0480 -68.7934 195° South 372 428 36,000  Level FlightAware ADS-B
Sun 13:33:20 44.9804 -68.8249 198° South 348 400 36,000  Level FlightAware ADS-B
Sun 13:33:52 44.9379 -68.8671 215° Southwest 343 395 36,000  Level FlightAware ADS-B
Sun 13:34:31 44.8872 -68.9178 215° Southwest 346 398 36,000  Level FlightAware ADS-B
Sun 13:35:07 44.8412 -68.9637 215° Southwest 345 397 36,000  Level FlightAware ADS-B
Sun 13:35:42 44.7948 -69.0098 215° Southwest 346 398 36,000  Level FlightAware ADS-B
Sun 13:36:20 44.7456 -69.0587 215° Southwest 346 398 36,000  Level FlightAware ADS-B
Sun 13:37:22 44.6837 -69.1199 215° Southwest 347 399 36,000  Level FlightAware ADS-B
Sun 13:38:01 44.6141 -69.1886 215° Southwest 347 399 36,000  Level FlightAware ADS-B
Sun 13:38:50 44.5555 -69.2462 215° Southwest 346 398 36,000  Level FlightAware ADS-B
Sun 13:39:40 44.4831 -69.3173 215° Southwest 344 396 36,000  Level FlightAware ADS-B
Sun 13:40:18 44.4338 -69.3655 215° Southwest 342 394 36,000  Level FlightAware ADS-B
Sun 13:41:01 44.3804 -69.4177 215° Southwest 340 391 36,000  Level FlightAware ADS-B
Sun 13:41:37 44.3323 -69.4645 215° Southwest 339 390 36,000  Level FlightAware ADS-B
Sun 13:42:18 44.2980 -69.4980 215° Southwest 338 389 36,000  Level FlightAware ADS-B
Sun 13:42:58 44.2479 -69.5466 215° Southwest 339 390 36,000  Level FlightAware ADS-B
Sun 13:43:39 44.1798 -69.6126 215° Southwest 341 392 36,000  Level FlightAware ADS-B
Sun 13:44:19 44.1439 -69.6473 215° Southwest 335 386 36,000  Level FlightAware ADS-B
Sun 13:44:49 44.1055 -69.6843 215° Southwest 334 384 36,000  Level FlightAware ADS-B
Sun 13:45:30 44.0513 -69.7365 215° Southwest 333 383 36,000  Level FlightAware ADS-B
Sun 13:46:18 43.9890 -69.7964 215° Southwest 334 384 36,000  Level FlightAware ADS-B
Sun 13:46:59 43.9363 -69.8470 215° Southwest 334 384 36,000  Level FlightAware ADS-B
Sun 13:47:03 43.9377 -69.8456 35° Northeast 341 392 36,000  Level FlightAware ADS-B
Sun 13:47:55 43.8638 -69.9164 215° Southwest 334 384 36,000  Level FlightAware ADS-B
Sun 13:48:29 43.8202 -69.9579 215° Southwest 334 384 36,000  Level FlightAware ADS-B
Sun 13:49:08 43.7693 -70.0063 215° Southwest 334 384 36,000  Level FlightAware ADS-B
Sun 13:49:49 43.7163 -70.0567 214° Southwest 334 384 36,000  Level FlightAware ADS-B
Sun 13:50:19 43.6775 -70.0935 214° Southwest 334 384 36,000  Level FlightAware ADS-B
Sun 13:50:49 43.6386 -70.1303 214° Southwest 336 387 36,000  Level FlightAware ADS-B
Sun 13:51:19 43.5992 -70.1676 214° Southwest 336 387 36,000  Level FlightAware ADS-B
Sun 13:51:55 43.5517 -70.2124 214° Southwest 337 388 36,000  Level FlightAware ADS-B
Sun 13:52:26 43.5114 -70.2504 214° Southwest 345 397 36,000  Level FlightAware ADS-B
Sun 13:53:08 43.4577 -70.3009 214° Southwest 348 400 36,000  Level FlightAware ADS-B
Sun 13:53:48 43.4040 -70.3513 214° Southwest 350 403 36,000  Level FlightAware ADS-B
Sun 13:54:28 43.3502 -70.4016 214° Southwest 352 405 36,000  Level FlightAware ADS-B
Sun 13:55:02 43.3036 -70.4451 214° Southwest 353 406 36,000  Level FlightAware ADS-B (KBKF)
Sun 13:55:32 43.2623 -70.4836 214° Southwest 356 410 36,000  Level FlightAware ADS-B (KBKF)
Sun 13:56:11 43.2125 -70.5301 214° Southwest 356 410 36,000  Level FlightAware ADS-B (KBKF)
Sun 13:56:55 43.1507 -70.5874 214° Southwest 356 410 36,000  Level FlightAware ADS-B
Sun 13:57:38 43.0904 -70.6432 214° Southwest 355 409 36,000  Level FlightAware ADS-B
Sun 13:58:16 43.0388 -70.6910 214° Southwest 355 409 36,000  Level FlightAware ADS-B (KBKF)
Sun 13:58:58 42.9829 -70.7425 214° Southwest 354 407 36,000  Level FlightAware ADS-B (KBKF)
Sun 13:59:34 42.9344 -70.7871 214° Southwest 352 405 36,000  Level FlightAware ADS-B (KBKF)
Sun 14:00:02 42.8963 -70.8225 214° Southwest 344 396 36,000  Level FlightAware ADS-B
Sun 14:00:42 42.8468 -70.8755 218° Southwest 348 400 36,000  Level FlightAware ADS-B
Sun 14:01:18 42.8004 -70.9254 218° Southwest 349 402 36,000  Level FlightAware ADS-B
Sun 14:01:57 42.7497 -70.9787 218° Southwest 350 403 36,000  Level FlightAware ADS-B
Sun 14:02:43 42.6922 -71.0389 218° Southwest 352 405 36,000  Level FlightAware ADS-B
Sun 14:03:28 42.6331 -71.1006 218° Southwest 353 406 36,000  Level FlightAware ADS-B
Sun 14:04:09 42.5805 -71.1552 217° Southwest 354 407 36,000  Level FlightAware ADS-B
Sun 14:04:49 42.5295 -71.2082 217° Southwest 349 402 36,000  Level FlightAware ADS-B
Sun 14:05:33 42.4721 -71.2676 217° Southwest 357 411 36,000  Level FlightAware ADS-B (KBKF)
Sun 14:06:15 42.4157 -71.3257 217° Southwest 356 410 36,000  Level FlightAware ADS-B
Sun 14:06:46 42.3771 -71.3656 217° Southwest 355 409 36,000  Level FlightAware ADS-B (KOWD)
Sun 14:06:53 42.3665 -71.3765 217° Southwest 355 409 36,000  Level FlightAware ADS-B (KBKF)
Sun 14:07:31 42.3224 -71.4219 217° Southwest 353 406 36,000  Level FlightAware ADS-B (KBKF)
Sun 14:08:06 42.2719 -71.4737 217° Southwest 354 407 36,000  Level FlightAware ADS-B (KBKF)
Sun 14:08:19 42.2542 -71.4919 217° Southwest 348 400 36,000  Level FlightAware ADS-B
Sun 14:08:55 42.2069 -71.5403 217° Southwest 355 409 36,000  Level FlightAware ADS-B
Sun 14:09:18 42.1775 -71.5703 217° Southwest 349 402 36,000  Level FlightAware ADS-B
Sun 14:09:48 42.1499 -71.5985 217° Southwest 355 409 36,000  Level FlightAware ADS-B (KOWD)
Sun 14:10:18 42.1018 -71.6475 217° Southwest 355 409 36,000  Level FlightAware ADS-B (KOWD)
Sun 14:10:56 42.0918 -71.6578 217° Southwest 356 410 36,000  Level FlightAware ADS-B (KOWD)
Sun 14:11:19 42.0185 -71.7322 217° Southwest 350 403 36,000  Level FlightAware ADS-B
Sun 14:11:31 42.0051 -71.7458 217° Southwest 357 411 36,000  Level FlightAware ADS-B (KOWD)
Sun 14:12:07 41.9663 -71.7852 217° Southwest 358 412 36,000  Level FlightAware ADS-B (KOWD)
Sun 14:12:38 41.9149 -71.8372 217° Southwest 360 414 36,000  Level FlightAware ADS-B
Sun 14:13:19 41.8598 -71.8929 217° Southwest 361 415 36,000  Level FlightAware ADS-B
Sun 14:13:50 41.8185 -71.9345 217° Southwest 363 418 36,000  Level FlightAware ADS-B (KSNC)
Sun 14:14:37 41.8308 -71.9221 37° Northeast 363 418 36,000  Level FlightAware ADS-B (KOWD)
Sun 14:15:25 41.6912 -72.0624 217° Southwest 363 418 36,000  Level FlightAware ADS-B (KBKF)
Sun 14:16:14 41.6249 -72.1287 217° Southwest 362 417 36,000  Level FlightAware ADS-B (KBKF)
Sun 14:16:54 41.5743 -72.1792 217° Southwest 361 415 36,000  Level FlightAware ADS-B (KBKF)
Sun 14:17:31 41.5230 -72.2303 217° Southwest 361 415 36,000  Level FlightAware ADS-B (KBKF)
Sun 14:18:06 41.5252 -72.2281 37° Northeast 360 414 36,000  Level FlightAware ADS-B (KOWD)
Sun 14:18:42 41.4328 -72.3199 217° Southwest 359 413 36,000  Level FlightAware ADS-B (KBKF)
Sun 14:19:16 41.3810 -72.3712 217° Southwest 360 414 36,000  Level FlightAware ADS-B (KBKF)
Sun 14:19:48 41.3394 -72.4123 217° Southwest 362 417 36,000  Level FlightAware ADS-B (KSNC)
Sun 14:20:25 41.2909 -72.4601 217° Southwest 362 417 36,000  Level FlightAware ADS-B (KSNC)
Sun 14:21:08 41.2335 -72.5167 217° Southwest 361 415 36,000  Level FlightAware ADS-B (KSNC)
Sun 14:21:53 41.1721 -72.5769 216° Southwest 361 415 36,000  Level FlightAware ADS-B (KSNC)
Sun 14:22:38 41.1120 -72.6359 216° Southwest 362 417 36,000  Level FlightAware ADS-B (KSNC)
Sun 14:23:36 41.0337 -72.7125 216° Southwest 365 420 36,000  Level FlightAware ADS-B (KSNC)
Sun 14:24:22 40.9721 -72.7726 216° Southwest 364 419 36,000  Level FlightAware ADS-B (KSNC)
Sun 14:25:07 40.9097 -72.8332 216° Southwest 363 418 36,000  Level FlightAware ADS-B (KSNC)
Sun 14:25:52 40.8492 -72.8919 216° Southwest 361 415 36,000  Level FlightAware ADS-B (KSNC)
Sun 14:26:31 40.7959 -72.9435 216° Southwest 361 415 36,000  Level FlightAware ADS-B (KSNC)
Sun 14:27:01 40.7611 -72.9771 216° Southwest 361 415 36,000  Level FlightAware ADS-B (KSNC)
Sun 14:27:34 40.7394 -72.9981 216° Southwest 362 417 36,000  Level FlightAware ADS-B (KSNC)
Sun 14:28:21 40.6487 -73.0856 216° Southwest 363 418 36,000  Level FlightAware ADS-B (KSNC)
Sun 14:29:01 40.5941 -73.1379 216° Southwest 366 421 36,000  Level FlightAware ADS-B (KSNC)
Sun 14:29:11 40.5801 -73.1513 216° Southwest 360 414 36,000  Level FlightAware ADS-B (KWWD)
Sun 14:29:42 40.5387 -73.1910 216° Southwest 366 421 36,000  Level FlightAware ADS-B (KSNC)
Sun 14:29:51 40.5255 -73.2037 216° Southwest 361 415 36,000  Level FlightAware ADS-B (KWWD)
Sun 14:30:09 40.5016 -73.2266 216° Southwest 361 415 36,000  Level FlightAware ADS-B (KWWD)
Sun 14:30:40 40.4586 -73.2677 216° Southwest 366 421 36,000  Level FlightAware ADS-B (KSNC)
Sun 14:30:52 40.4425 -73.2831 216° Southwest 366 421 36,000  Level FlightAware ADS-B (KSNC)
Sun 14:31:33 40.3885 -73.3345 216° Southwest 366 421 36,000  Level FlightAware ADS-B (KSNC)
Sun 14:32:00 40.3485 -73.3726 216° Southwest 359 413 36,000  Level FlightAware ADS-B (KWWD)
Sun 14:32:42 40.2918 -73.4265 216° Southwest 366 421 36,000  Level FlightAware ADS-B (KSNC)
Sun 14:33:02 40.2637 -73.4531 216° Southwest 359 413 36,000  Level FlightAware ADS-B (KWWD)
Sun 14:33:29 40.2265 -73.4883 216° Southwest 361 415 36,000  Level FlightAware ADS-B (KWWD)
Sun 14:34:02 40.1866 -73.5261 216° Southwest 368 423 36,000  Level FlightAware ADS-B (KSNC)
Sun 14:34:12 40.1675 -73.5442 216° Southwest 361 415 36,000  Level FlightAware ADS-B (KWWD)
Sun 14:34:42 40.1277 -73.5817 216° Southwest 360 414 36,000  Level FlightAware ADS-B (KWWD)
Sun 14:36:00 40.0198 -73.6833 216° Southwest 360 414 36,000  Level FlightAware ADS-B (KWWD)
Sun 14:36:31 39.9770 -73.7234 216° Southwest 360 414 36,000  Level FlightAware ADS-B (KWWD)
Sun 14:37:02 39.9344 -73.7634 216° Southwest 361 415 36,000  Level FlightAware ADS-B (KWWD)
Sun 14:37:42 39.8800 -73.8143 216° Southwest 361 415 36,000  Level FlightAware ADS-B (KWWD)
Sun 14:38:23 39.8236 -73.8669 216° Southwest 360 414 36,000  Level FlightAware ADS-B (KWWD)
Sun 14:39:33 39.7275 -73.9564 216° Southwest 359 413 36,000  Level FlightAware ADS-B (KWWD)
Sun 14:40:13 39.6722 -74.0076 216° Southwest 360 414 36,000  Level FlightAware ADS-B (KWWD)
Sun 14:41:23 39.6221 -74.0541 216° Southwest 369 425 36,000  Level FlightAware ADS-B
Sun 14:42:21 39.5246 -74.1442 215° Southwest 368 423 36,000  Level FlightAware ADS-B
Sun 14:42:53 39.4505 -74.2124 215° Southwest 361 415 36,000  Level FlightAware ADS-B (KWWD)
Sun 14:43:26 39.4075 -74.2520 215° Southwest 367 422 36,000  Level FlightAware ADS-B
Sun 14:44:05 39.3530 -74.3020 215° Southwest 369 425 36,000  Level FlightAware ADS-B
Sun 14:44:35 39.3094 -74.3419 215° Southwest 362 417 36,000  Level FlightAware ADS-B (KWWD)
Sun 14:45:17 39.2575 -74.3895 215° Southwest 367 422 36,000  Level FlightAware ADS-B
Sun 14:45:55 39.1977 -74.4440 215° Southwest 361 415 36,000  Level FlightAware ADS-B (KWWD)
Sun 14:46:35 39.1429 -74.4939 215° Southwest 361 415 36,000  Level FlightAware ADS-B (KWWD)
Sun 14:47:14 39.0884 -74.5434 215° Southwest 360 414 36,000  Level FlightAware ADS-B (KWWD)
Sun 14:48:02 39.0223 -74.6034 215° Southwest 359 413 36,000  Level FlightAware ADS-B (KWWD)
Sun 14:48:18 39.0510 -74.5775 35° Northeast 367 422 36,000  Level FlightAware ADS-B
Sun 14:49:02 38.9379 -74.6797 215° Southwest 363 418 36,000  Level FlightAware ADS-B (KWWD)
Sun 14:49:41 38.8839 -74.7285 215° Southwest 359 413 36,000  Level FlightAware ADS-B (KWWD)
Sun 14:50:15 38.8377 -74.7701 215° Southwest 365 420 36,000  Level FlightAware ADS-B (EGBB / BHX)
Sun 14:50:45 38.7968 -74.8070 215° Southwest 359 413 36,000  Level FlightAware ADS-B (KWWD)
Sun 14:51:19 38.7504 -74.8485 215° Southwest 368 423 36,000  Level FlightAware ADS-B (EGBB / BHX)
Sun 14:51:38 38.7234 -74.8728 215° Southwest 362 417 36,000  Level FlightAware ADS-B (KWWD)
Sun 14:52:09 38.7195 -74.8763 215° Southwest 369 425 36,000  Level FlightAware ADS-B (EGAA / BFS)
Sun 14:52:44 38.6309 -74.9556 215° Southwest 354 407 36,000  Level FlightAware ADS-B (KWWD)
Sun 14:53:23 38.5780 -75.0028 215° Southwest 358 412 36,000  Level FlightAware ADS-B (KWWD)
Sun 14:54:02 38.5253 -75.0498 215° Southwest 355 409 36,000  Level FlightAware ADS-B (KWWD)
Sun 14:54:45 38.4683 -75.1005 215° Southwest 356 410 36,000  Level FlightAware ADS-B (KWWD)
Sun 14:55:25 38.4147 -75.1481 215° Southwest 357 411 36,000  Level FlightAware ADS-B (KWWD)
Sun 14:56:04 38.3606 -75.1960 215° Southwest 358 412 36,000  Level FlightAware ADS-B (KWWD)
Sun 14:56:44 38.3063 -75.2441 215° Southwest 356 410 36,000  Level FlightAware ADS-B (KWWD)
Sun 14:57:25 38.2514 -75.2924 215° Southwest 350 403 36,000  Level FlightAware ADS-B (KWWD)
Sun 14:58:05 38.1928 -75.3335 209° Southwest 354 407 36,000  Level FlightAware ADS-B (KWWD)
Sun 14:58:45 38.1369 -75.3725 209° Southwest 348 400 36,000  Level FlightAware ADS-B (KWWD)
Sun 14:59:24 38.0820 -75.4109 209° Southwest 348 400 36,000  Level FlightAware ADS-B (KWWD)
Sun 14:59:58 38.0354 -75.4433 209° Southwest 345 397 36,000  Level FlightAware ADS-B (EGAA / BFS)
Sun 15:00:40 37.9773 -75.4837 209° Southwest 345 397 36,000  Level FlightAware ADS-B (EGAA / BFS)
Sun 15:01:18 37.9243 -75.5205 209° Southwest 343 395 36,000  Level FlightAware ADS-B (EGAA / BFS)
Sun 15:02:04 37.8583 -75.5663 209° Southwest 335 386 36,000  Level FlightAware ADS-B (KWWD)
Sun 15:02:12 37.8482 -75.5733 209° Southwest 342 394 36,000  Level FlightAware ADS-B (EGAA / BFS)
Sun 15:02:43 37.8047 -75.6034 209° Southwest 335 386 36,000  Level FlightAware ADS-B (KWWD)
Sun 15:03:24 37.7466 -75.6436 209° Southwest 335 386 36,000  Level FlightAware ADS-B (KWWD)
Sun 15:04:04 37.6934 -75.6804 209° Southwest 334 384 36,000  Level FlightAware ADS-B (KWWD)
Sun 15:04:44 37.6367 -75.7194 209° Southwest 333 383 36,000  Level FlightAware ADS-B (KWWD)
Sun 15:05:19 37.5884 -75.7526 209° Southwest 334 384 36,000  Level FlightAware ADS-B (KWWD)
Sun 15:06:05 37.5254 -75.7959 209° Southwest 336 387 36,000  Level FlightAware ADS-B (KWWD)
Sun 15:06:42 37.4736 -75.8314 209° Southwest 334 384 36,000  Level FlightAware ADS-B (KWWD)
Sun 15:07:25 37.4132 -75.8727 209° Southwest 331 381 36,000  Level FlightAware ADS-B (KWWD)
Sun 15:08:04 37.3609 -75.9085 209° Southwest 330 380 36,000  Level FlightAware ADS-B (KWWD)
Sun 15:08:46 37.3036 -75.9476 208° Southwest 331 381 36,000  Level FlightAware ADS-B (KWWD)
Sun 15:09:22 37.2543 -75.9811 208° Southwest 331 381 36,000  Level FlightAware ADS-B (KWWD)
Sun 15:10:03 37.1975 -76.0198 208° Southwest 332 382 36,000  Level FlightAware ADS-B (KWWD)
Sun 15:10:58 37.1209 -76.0718 208° Southwest 333 383 36,000  Level FlightAware ADS-B (KWWD)
Sun 15:11:31 37.0756 -76.1024 208° Southwest 335 386 36,000  Level FlightAware ADS-B (KWWD)
Sun 15:12:41 36.9781 -76.1683 208° Southwest 335 386 36,000  Level FlightAware ADS-B (KWWD)
Sun 15:13:28 36.9128 -76.2123 208° Southwest 335 386 36,000  Level FlightAware ADS-B (KWWD)
Sun 15:14:05 36.8615 -76.2469 208° Southwest 335 386 36,000  Level FlightAware ADS-B (KWWD)
Sun 15:14:37 36.8163 -76.2772 208° Southwest 336 387 36,000  Level FlightAware ADS-B (KWWD)
Sun 15:18:21 36.5012 -76.4878 208° Southwest 336 387 36,000  Level FlightAware ADS-B (KWWD)
Sun 15:19:47 36.3858 -76.5672 208° Southwest 349 402 36,000  Level Washington Center
Sun 15:21:00 36.2618 -76.6441 207° Southwest  Level FlightAware Approximate
Sun 15:21:46 36.2181 -76.6733 207° Southwest 349 402 36,000  Level Washington Center
Sun 15:27:29 35.7274 -76.9968 207° Southwest 348 400 36,000  Level FlightAware ADS-B
Sun 15:28:07 35.6731 -77.0321 208° Southwest 348 400 36,000  Level FlightAware ADS-B
Sun 15:28:49 35.6134 -77.0709 208° Southwest 346 398 36,000  Level FlightAware ADS-B
Sun 15:29:29 35.5590 -77.1061 208° Southwest 346 398 36,000  Level FlightAware ADS-B
Sun 15:30:07 35.5039 -77.1418 208° Southwest 348 400 36,000  Level FlightAware ADS-B
Sun 15:30:49 35.4431 -77.1809 208° Southwest 356 410 36,000  Level FlightAware ADS-B
Sun 15:31:25 35.3903 -77.2135 207° Southwest 356 410 36,000  Level FlightAware ADS-B
Sun 15:32:09 35.3205 -77.2402 197° South 356 410 36,000  Level FlightAware ADS-B
Sun 15:32:49 35.2569 -77.2643 197° South 358 412 36,000  Level FlightAware ADS-B
Sun 15:33:47 35.1659 -77.2988 197° South 358 412 36,000  Level FlightAware ADS-B
Sun 15:34:29 35.0988 -77.3242 197° South 362 417 36,000  Level FlightAware ADS-B
Sun 15:35:09 35.0364 -77.3478 197° South 363 418 36,000  Level FlightAware ADS-B
Sun 15:35:49 34.9724 -77.3718 197° South 366 421 36,000  Level FlightAware ADS-B
Sun 15:36:29 34.9058 -77.3969 197° South 364 419 36,000  Level FlightAware ADS-B
Sun 15:37:09 34.8417 -77.4209 197° South 366 421 36,000  Level FlightAware ADS-B
Sun 15:37:49 34.7767 -77.4454 197° South 371 427 36,000  Level FlightAware ADS-B
Sun 15:38:27 34.7159 -77.4681 197° South 370 426 36,000  Level FlightAware ADS-B
Sun 15:39:09 34.6457 -77.4943 197° South 367 422 36,000  Level FlightAware ADS-B
Sun 15:39:47 34.5838 -77.5174 197° South 369 425 36,000  Level FlightAware ADS-B
Sun 15:40:29 34.5178 -77.5419 197° South 368 423 36,000  Level FlightAware ADS-B
Sun 15:40:59 34.4681 -77.5603 197° South 368 423 36,000  Level FlightAware ADS-B
Sun 15:42:09 34.3553 -77.6022 197° South 366 421 36,000  Level FlightAware ADS-B
Sun 15:42:49 34.2874 -77.6274 197° South 367 422 36,000  Level FlightAware ADS-B
Sun 15:43:23 34.2323 -77.6478 197° South 368 423 36,000  Level FlightAware ADS-B
Sun 15:44:07 34.1605 -77.6744 197° South 370 426 36,000  Level FlightAware ADS-B
Sun 15:44:46 34.1033 -77.6961 197° South 368 423 36,000  Level Washington Center
Sun 15:45:55 33.9875 -77.7358 196° South 373 429 36,000  Level Jacksonville Center
Sun 15:46:55 33.8889 -77.7717 197° South 389 448 36,000  Level Jacksonville Center
Sun 15:47:55 33.7903 -77.8100 198° South 382 440 36,000  Level Jacksonville Center
Sun 15:48:55 33.6914 -77.8406 194° South 376 433 36,000  Level Jacksonville Center
Sun 15:49:55 33.6011 -77.8783 199° South 376 433 36,000  Level Jacksonville Center
Sun 15:50:55 33.5003 -77.9139 196° South 376 433 36,000  Level Jacksonville Center
Sun 15:51:55 33.4017 -77.9517 198° South 376 433 36,000  Level Jacksonville Center
Sun 15:52:55 33.3028 -77.9869 197° South 376 433 36,000  Level Jacksonville Center
Sun 15:53:55 33.2019 -78.0222 196° South 376 433 36,000  Level Jacksonville Center
Sun 15:54:55 33.1031 -78.0575 197° South 376 433 36,000  Level Jacksonville Center
Sun 15:55:55 33.0044 -78.0950 198° South 376 433 36,000  Level Jacksonville Center
Sun 15:56:55 32.9014 -78.1278 195° South 376 433 36,000  Level Jacksonville Center
Sun 15:57:55 32.8006 -78.1675 198° South 376 433 36,000  Level Jacksonville Center
Sun 15:58:55 32.6997 -78.2025 196° South 376 433 36,000  Level Jacksonville Center
Sun 15:59:55 32.5964 -78.2375 196° South 381 438 36,000  Level Jacksonville Center
Sun 16:00:55 32.4933 -78.2722 196° South 381 438 36,000  Level Jacksonville Center
Sun 16:01:55 32.3906 -78.3094 197° South 381 438 36,000  Level Jacksonville Center
Sun 16:02:55 32.2897 -78.3489 198° South 386 444 36,000  Level Jacksonville Center
Sun 16:03:55 32.1825 -78.3886 197° South 391 450 36,000  Level Jacksonville Center
Sun 16:04:55 32.0836 -78.4228 196° South 391 450 36,000  Level Jacksonville Center
Sun 16:05:55 31.9806 -78.4622 198° South 385 443 36,000  Level Jacksonville Center
Sun 16:06:55 31.8772 -78.4964 196° South 390 449 36,000  Level Jacksonville Center
Sun 16:07:55 31.7700 -78.5333 196° South 395 455 36,000  Level Jacksonville Center
Sun 16:08:55 31.6669 -78.5675 196° South 395 455 36,000  Level Jacksonville Center
Sun 16:09:55 31.5636 -78.6039 197° South 395 455 36,000  Level Jacksonville Center
Sun 16:10:55 31.4525 -78.6456 198° South 395 455 36,000  Level Jacksonville Center
Sun 16:11:55 31.3469 -78.6794 195° South 400 460 36,000  Level Jacksonville Center
Sun 16:12:55 31.2397 -78.7158 196° South 400 460 36,000  Level Jacksonville Center
Sun 16:13:55 31.1325 -78.7547 197° South 400 460 36,000  Level Jacksonville Center
Sun 16:14:55 31.0169 -78.7936 196° South 400 460 36,000  Level Jacksonville Center
Sun 16:15:55 30.9053 -78.8325 197° South 404 465 36,000  Level Jacksonville Center
Sun 16:16:55 30.8000 -78.8708 197° South 404 465 36,000  Level Jacksonville Center
Sun 16:17:55 30.6864 -78.9069 195° South 407 468 36,000  Level Jacksonville Center
Sun 16:20:24 30.4269 -78.9964 197° South 399 459 36,000  Level Miami Center
Sun 16:21:24 30.3200 -79.0422 200° South 409 471 36,000  Level Miami Center
Sun 16:22:23 30.2086 -79.0878 199° South 420 483 36,000  Level Miami Center
Sun 16:23:24 30.0956 -79.1311 198° South 420 483 36,000  Level Miami Center
Sun 16:24:24 29.9800 -79.1814 201° Southwest 420 483 36,000  Level Miami Center
Sun 16:25:24 29.8689 -79.2219 198° South 420 483 36,000  Level Miami Center
Sun 16:26:24 29.7617 -79.2650 199° South 420 483 36,000  Level Miami Center
Sun 16:27:24 29.6483 -79.3056 197° South 415 478 36,000  Level Miami Center
Sun 16:28:24 29.5414 -79.3483 199° South 415 478 36,000  Level Miami Center
Sun 16:29:24 29.4281 -79.3886 197° South 420 483 36,000  Level Miami Center
Sun 16:30:24 29.3189 -79.4314 199° South 425 489 36,000  Level Miami Center
Sun 16:31:24 29.2075 -79.4717 198° South 425 489 36,000  Level Miami Center
Sun 16:32:23 29.0961 -79.5142 198° South 425 489 36,000  Level Miami Center
Sun 16:38:27 28.4025 -79.7707 198° South 423 487 36,000  Level FlightAware ADS-B
Sun 16:39:08 28.3281 -79.7983 198° South 421 484 36,000  Level FlightAware ADS-B
Sun 16:39:40 28.2677 -79.8207 198° South 419 482 36,000  Level FlightAware ADS-B
Sun 16:40:27 28.1905 -79.8493 198° South 421 484 36,000  Level FlightAware ADS-B
Sun 16:41:03 28.1147 -79.8774 198° South 425 489 36,000  Level FlightAware ADS-B
Sun 16:41:46 28.0339 -79.9072 198° South 426 490 36,000  Level FlightAware ADS-B
Sun 16:42:23 27.9850 -79.9253 198° South 426 490 36,000  Level FlightAware ADS-B
Sun 16:43:08 27.8804 -79.9638 198° South 424 488 36,000  Level FlightAware ADS-B
Sun 16:43:49 27.8055 -79.9913 198° South 424 488 36,000  Level FlightAware ADS-B
Sun 16:44:29 27.7312 -80.0186 198° South 426 490 36,000  Level FlightAware ADS-B
Sun 16:45:09 27.6542 -80.0468 198° South 428 493 36,000  Level FlightAware ADS-B
Sun 16:45:49 27.5786 -80.0744 198° South 429 494 36,000  Level FlightAware ADS-B
Sun 16:46:20 27.5210 -80.0955 198° South 428 493 36,000  Level FlightAware ADS-B
Sun 16:47:08 27.4283 -80.1293 198° South 428 493 36,000  Level FlightAware ADS-B
Sun 16:47:49 27.3522 -80.1570 198° South 429 494 36,000  Level FlightAware ADS-B
Sun 16:48:27 27.2794 -80.1836 198° South 432 497 36,000  Level FlightAware ADS-B
Sun 16:49:08 27.2097 -80.2089 198° South 436 502 36,000  Level FlightAware ADS-B
Sun 16:49:42 27.1487 -80.2311 198° South 436 502 36,000  Level FlightAware ADS-B
Sun 16:50:27 27.0547 -80.2651 198° South 435 501 36,000  Level FlightAware ADS-B
Sun 16:51:09 26.9690 -80.2960 198° South 434 499 36,000  Level FlightAware ADS-B
Sun 16:51:45 26.8990 -80.3213 198° South 433 498 36,000  Level FlightAware ADS-B
Sun 16:52:29 26.8158 -80.3514 198° South 434 499 36,000  Level FlightAware ADS-B
Sun 16:53:07 26.7486 -80.3756 198° South 434 499 36,000  Level FlightAware ADS-B
Sun 16:56:09 26.4024 -80.4998 198° South 436 502 36,000  Level FlightAware ADS-B
Sun 16:56:47 26.3221 -80.5284 198° South 434 499 36,000  Level FlightAware ADS-B
Sun 16:57:26 26.2718 -80.5464 198° South 432 497 36,000  Level FlightAware ADS-B
Sun 16:58:23 26.1475 -80.5922 198° South 424 488 36,000  Level Miami Center
Sun 16:59:23 26.0339 -80.6325 198° South 429 494 36,000  Level Miami Center
Sun 17:00:23 25.9200 -80.6753 199° South 429 494 36,000 -350 Level Miami Center
Sun 17:01:23 25.8058 -80.7178 199° South 429 494 35,300 -850 Descending Miami Center
Sun 17:02:23 25.6983 -80.7558 198° South 440 506 34,300 -1,000 Descending Miami Center
Sun 17:03:23 25.5803 -80.7958 197° South 446 513 33,300 -1,000 Descending Miami Center
Sun 17:04:23 25.4644 -80.8381 198° South 446 513 32,300 -950 Descending Miami Center
Sun 17:05:23 25.3464 -80.8778 197° South 441 507 31,400 -650 Descending Miami Center
Sun 17:06:23 25.2347 -80.9153 197° South 441 507 31,000 -200 Descending Miami Center
Sun 17:07:23 25.1228 -80.9553 198° South 436 502 31,000 -350 Level Miami Center
Sun 17:08:23 25.0111 -80.9928 197° South 430 495 30,300 -850 Descending Miami Center
Sun 17:09:23 24.9014 -81.0303 197° South 425 489 29,300 -1,000 Descending Miami Center
Sun 17:10:23 24.7939 -81.0678 198° South 420 483 28,300 -1,000 Descending Miami Center
Sun 17:11:23 24.6864 -81.1008 196° South 415 478 27,300 -950 Descending Miami Center
Sun 17:12:23 24.5753 -81.1175 188° South 409 471 26,400 -950 Descending Miami Center
Sun 17:13:23 24.4619 -81.1319 187° South 409 471 25,400 -1,000 Descending Miami Center
Sun 17:14:23 24.3550 -81.1511 189° South 409 471 24,400 -1,000 Descending Miami Center
Sun 17:15:23 24.2478 -81.1725 190° South 409 471 23,400 -1,000 Descending Miami Center
Sun 17:16:23 24.1450 -81.1917 190° South 398 458 22,400 -1,000 Descending Miami Center
Sun 17:17:23 24.0481 -81.2178 194° South 378 435 21,400 -1,000 Descending Miami Center
Sun 17:19:00 23.8680 -81.2440 191° South  Level FlightAware Approximate
Sun 17:26:00 23.0954 -81.4295 194° South  Level FlightAware Approximate
Sun 17:27:00 23.0098 -81.4841 258° West  Level FlightAware Approximate
Sun 17:28:00 22.9935 -81.6055 264° West  Level FlightAware Approximate
Sun 17:29:00 22.9810 -81.7274 257° West  Level FlightAware Approximate
Sun 17:30:00 22.9554 -81.8471 257° West  Level FlightAware Approximate
Sun 17:31:00 22.9333 -81.9671 270° West  Level FlightAware Approximate
Sun 17:32:00 22.9333 -82.0899 270° West  Level FlightAware Approximate
Sun 17:33:00 22.9500 -82.2102 270° West  Level FlightAware Approximate
Sun 17:34:00 22.9667 -82.3311 270° West  Level FlightAware Approximate
Sun 17:35:00 22.9667 -82.4000 270° West  Level FlightAware Approximate
Sun 17:36:00 22.9891 -82.4091 270° West  Level Estimated
Sun 17:37:00 22.9891 -82.4091 270° West  Level Estimated
Sun 17:38:00 22.9891 -82.4091 270° West  Level Estimated
Sun 17:39:00 22.9891 -82.4091 270° West  Level Estimated
Sun 17:40:00 22.9891 -82.4091 270° West  Level Estimated
Sun 17:41:00 22.9891 -82.4091 270° West  Level Estimated
Sun 17:42:00 22.9891 -82.4091 270° West  Level Estimated
Sun 17:43:00 22.9891 -82.4091 270° West  Level Estimated
Sun 17:44:00 22.9891 -82.4091 270° West  Level Estimated
Sun 17:45:00 22.9891 -82.4091 270° West  Level Estimated
Sun 17:46:00 22.9891 -82.4091 270° West  Level Estimated
Sun 17:47:00 22.9891 -82.4091 270° West  Level Estimated
Sun 17:48:00 22.9891 -82.4091 270° West  Level Estimated
Sun 17:49:00 22.9891 -82.4091 270° West  Level Estimated
Sun 17:50:00 22.9891 -82.4091 270° West  Level Estimated
Sun 17:51:00 22.9891 -82.4091 270° West  Level Estimated
Sun 17:52:00 22.9891 -82.4091 270° West  Level Estimated
Sun 17:53:00 22.9891 -82.4091 270° West  Level Estimated
Sun 17:54:00 22.9891 -82.4091 270° West  Level Estimated
Sun 17:55:00 22.9891 -82.4091 270° West  Level Estimated

Login

Don't have an account? Register now (free) for customized features, flight alerts, and more!